KQSI

2017-11-06 13:30:06Z

Plaintext report →

Temperature
High31.8 °C89.2 °F
Current29.4 °C84.9 °F
Low23.7 °C74.7 °F
Feels Like29.6 °C85.2 °F
Dewpoint16.4 °C61.5 °F
Winds
Speed and Direction2.9 m/s6.5 mi/h 5 kn323 °
Gust0.0 m/s0.00 mi/h 0 kn
SquallUnavailable
Pressure and Humidity
Pressure At Field Level1011.6 mb29.9 in
Pressure At Sea Level1016.6 mb30.0 in
Pressure Trend-0.3 mb -0.0 in
Pressure Tendency 7
Humidity45 %

Station Alarms & Warnings:

Ceilometer Alarms / Warnings:

Ceilometer Data Missing!
Historical

Additional Information:

  METAR KQSI 061330Z AUTO 32005KT NCD 29/16 A2987 RMK AO2 SLP166 10318
  20237 57003 PWINO $=    
Cloud Cover
Layer 1 Undetected
Layer 2 Undetected
Layer 3 Undetected
Winds
2-minute Winds
Minimum2.1 m/s4.70 mi/h 4 kn274 °
Average3.2 m/s7.16 mi/h 6 kn305 °
Maximum4.1 m/s9.17 mi/h 7 kn335 °
10-minute Winds
Minimum1.3 m/s2.91 mi/h 2 kn245 °
Average2.7 m/s6.04 mi/h 5 kn301 °
Maximum4.1 m/s9.17 mi/h 7 kn354 °
Precipitation
IntensityUnavailable
Rainfall
1-hour Total0.00 mm0.00 in
3-hour Total0.00 mm0.00 in
6-hour Total0.00 mm0.00 in
24-hour Total0.00 mm0.00 in
Precipitation
1-hour TotalUnavailable
3-hour TotalUnavailable
6-hour TotalUnavailable
24-hour TotalUnavailable